Sheffield, United Kingdom
Current Conditions -  °F | °C
As of 1:50 PM on Wednesday 28 Jan 2015 (Local Time) from EGCN Reporting Station
Scattered Clouds Scattered Clouds  
Wind Chill: 34°   Ceiling: Unl
Heat Index: 43°   Visibility: 6mi
Dew Point: 32°   Wind: 22mph
Humidity: 66%   Direction: 270°W
Pressure: 29.41"   Gusts: NA
Location:  53.38°N, 1.46°W
Report Text: EGCN 281350Z 27019KT 9999 FEW023 SCT037 06/00 Q0996
Loading
Personal Weather Stations






























Interactive Weather Map New forecast layout! Learn more

10-Day Weather Forecast

Advertisements
Track Severe Weather on mobile